sensor_id;sensor_type;location;lat;lon;timestamp;temperature;humidity
8231;DHT22;4156;50.908;6.974;2023-07-16T00:01:54;23.50;99.90
8231;DHT22;4156;50.908;6.974;2023-07-16T00:04:19;23.50;99.90
8231;DHT22;4156;50.908;6.974;2023-07-16T00:06:45;23.60;99.90
8231;DHT22;4156;50.908;6.974;2023-07-16T00:09:11;23.60;99.90
8231;DHT22;4156;50.908;6.974;2023-07-16T00:11:36;23.60;99.90
8231;DHT22;4156;50.908;6.974;2023-07-16T00:14:02;23.50;99.90
8231;DHT22;4156;50.908;6.974;2023-07-16T00:16:28;23.50;99.90
8231;DHT22;4156;50.908;6.974;2023-07-16T00:18:53;23.40;99.90
8231;DHT22;4156;50.908;6.974;2023-07-16T00:21:19;23.40;99.90
8231;DHT22;4156;50.908;6.974;2023-07-16T00:23:45;23.40;99.90
8231;DHT22;4156;50.908;6.974;2023-07-16T00:26:11;23.30;99.90
8231;DHT22;4156;50.908;6.974;2023-07-16T00:28:37;23.30;99.90
8231;DHT22;4156;50.908;6.974;2023-07-16T00:31:02;23.20;99.90
8231;DHT22;4156;50.908;6.974;2023-07-16T00:33:28;23.20;99.90
8231;DHT22;4156;50.908;6.974;2023-07-16T00:35:53;23.20;99.90
8231;DHT22;4156;50.908;6.974;2023-07-16T00:38:19;23.10;99.90
8231;DHT22;4156;50.908;6.974;2023-07-16T00:40:46;23.10;99.90
8231;DHT22;4156;50.908;6.974;2023-07-16T00:43:11;23.10;99.90
8231;DHT22;4156;50.908;6.974;2023-07-16T00:45:38;23.00;99.90
8231;DHT22;4156;50.908;6.974;2023-07-16T00:48:05;23.10;99.90
8231;DHT22;4156;50.908;6.974;2023-07-16T00:50:32;23.20;99.90
8231;DHT22;4156;50.908;6.974;2023-07-16T00:53:03;23.10;99.90
8231;DHT22;4156;50.908;6.974;2023-07-16T00:55:32;23.10;99.90
8231;DHT22;4156;50.908;6.974;2023-07-16T00:58:02;23.00;99.90
8231;DHT22;4156;50.908;6.974;2023-07-16T01:00:35;23.00;99.90
8231;DHT22;4156;50.908;6.974;2023-07-16T01:03:06;23.00;99.90
8231;DHT22;4156;50.908;6.974;2023-07-16T01:05:48;23.00;99.90
8231;DHT22;4156;50.908;6.974;2023-07-16T01:11:12;22.90;99.90
8231;DHT22;4156;50.908;6.974;2023-07-16T01:13:37;22.80;99.90
8231;DHT22;4156;50.908;6.974;2023-07-16T01:16:04;22.80;99.90
8231;DHT22;4156;50.908;6.974;2023-07-16T01:18:29;22.80;99.90
8231;DHT22;4156;50.908;6.974;2023-07-16T01:20:55;22.80;99.90
8231;DHT22;4156;50.908;6.974;2023-07-16T01:23:47;22.80;99.90
8231;DHT22;4156;50.908;6.974;2023-07-16T01:29:31;22.80;99.90
8231;DHT22;4156;50.908;6.974;2023-07-16T01:32:00;22.70;99.90
8231;DHT22;4156;50.908;6.974;2023-07-16T01:34:28;22.70;99.90
8231;DHT22;4156;50.908;6.974;2023-07-16T01:36:53;22.60;99.90
8231;DHT22;4156;50.908;6.974;2023-07-16T01:39:19;22.50;99.90
8231;DHT22;4156;50.908;6.974;2023-07-16T01:41:45;22.50;99.90
8231;DHT22;4156;50.908;6.974;2023-07-16T01:44:10;22.40;99.90
8231;DHT22;4156;50.908;6.974;2023-07-16T01:46:36;22.60;99.90
8231;DHT22;4156;50.908;6.974;2023-07-16T01:49:02;22.60;99.90
8231;DHT22;4156;50.908;6.974;2023-07-16T01:51:27;22.60;99.90
8231;DHT22;4156;50.908;6.974;2023-07-16T01:53:53;22.50;99.90
8231;DHT22;4156;50.908;6.974;2023-07-16T01:56:18;22.50;99.90
8231;DHT22;4156;50.908;6.974;2023-07-16T01:58:44;22.50;99.90
8231;DHT22;4156;50.908;6.974;2023-07-16T02:01:09;22.50;99.90
8231;DHT22;4156;50.908;6.974;2023-07-16T02:03:35;22.50;99.90
8231;DHT22;4156;50.908;6.974;2023-07-16T02:06:00;22.60;99.90
8231;DHT22;4156;50.908;6.974;2023-07-16T02:08:26;22.50;99.90
8231;DHT22;4156;50.908;6.974;2023-07-16T02:10:52;22.40;99.90
8231;DHT22;4156;50.908;6.974;2023-07-16T02:13:17;22.40;99.90
8231;DHT22;4156;50.908;6.974;2023-07-16T02:15:43;22.40;99.90
8231;DHT22;4156;50.908;6.974;2023-07-16T02:18:09;22.50;99.90
8231;DHT22;4156;50.908;6.974;2023-07-16T02:20:35;22.50;99.90
8231;DHT22;4156;50.908;6.974;2023-07-16T02:23:00;22.40;99.90
8231;DHT22;4156;50.908;6.974;2023-07-16T02:25:26;22.40;99.90
8231;DHT22;4156;50.908;6.974;2023-07-16T02:27:51;22.20;99.90
8231;DHT22;4156;50.908;6.974;2023-07-16T02:30:17;22.20;99.90
8231;DHT22;4156;50.908;6.974;2023-07-16T02:32:43;22.20;99.90
8231;DHT22;4156;50.908;6.974;2023-07-16T02:35:09;22.10;99.90
8231;DHT22;4156;50.908;6.974;2023-07-16T02:37:35;22.10;99.90
8231;DHT22;4156;50.908;6.974;2023-07-16T02:40:00;22.10;99.90
8231;DHT22;4156;50.908;6.974;2023-07-16T02:42:26;22.20;99.90
8231;DHT22;4156;50.908;6.974;2023-07-16T02:44:52;22.20;99.90
8231;DHT22;4156;50.908;6.974;2023-07-16T02:47:17;22.10;99.90
8231;DHT22;4156;50.908;6.974;2023-07-16T02:49:43;22.00;99.90
8231;DHT22;4156;50.908;6.974;2023-07-16T02:52:08;22.00;99.90
8231;DHT22;4156;50.908;6.974;2023-07-16T02:54:37;21.90;99.90
8231;DHT22;4156;50.908;6.974;2023-07-16T02:57:03;21.90;99.90
8231;DHT22;4156;50.908;6.974;2023-07-16T02:59:29;21.90;99.90
8231;DHT22;4156;50.908;6.974;2023-07-16T03:01:54;21.90;99.90
8231;DHT22;4156;50.908;6.974;2023-07-16T03:04:20;21.90;99.90
8231;DHT22;4156;50.908;6.974;2023-07-16T03:06:46;21.90;99.90
8231;DHT22;4156;50.908;6.974;2023-07-16T03:09:11;22.00;99.90
8231;DHT22;4156;50.908;6.974;2023-07-16T03:11:37;21.90;99.90
8231;DHT22;4156;50.908;6.974;2023-07-16T03:14:02;21.90;99.90
8231;DHT22;4156;50.908;6.974;2023-07-16T03:16:28;21.80;99.90
8231;DHT22;4156;50.908;6.974;2023-07-16T03:18:53;21.70;99.90
8231;DHT22;4156;50.908;6.974;2023-07-16T03:21:19;21.70;99.90
8231;DHT22;4156;50.908;6.974;2023-07-16T03:23:45;21.60;99.90
8231;DHT22;4156;50.908;6.974;2023-07-16T03:26:10;21.60;99.90
8231;DHT22;4156;50.908;6.974;2023-07-16T03:28:36;21.50;99.90
8231;DHT22;4156;50.908;6.974;2023-07-16T03:31:01;21.50;99.90
8231;DHT22;4156;50.908;6.974;2023-07-16T03:33:27;21.40;99.90
8231;DHT22;4156;50.908;6.974;2023-07-16T03:35:52;21.30;99.90
8231;DHT22;4156;50.908;6.974;2023-07-16T03:38:18;21.30;99.90
8231;DHT22;4156;50.908;6.974;2023-07-16T03:40:47;21.30;99.90
8231;DHT22;4156;50.908;6.974;2023-07-16T03:43:13;21.30;99.90
8231;DHT22;4156;50.908;6.974;2023-07-16T03:45:39;21.40;99.90
8231;DHT22;4156;50.908;6.974;2023-07-16T03:48:05;21.40;99.90
8231;DHT22;4156;50.908;6.974;2023-07-16T03:50:30;21.30;99.90
8231;DHT22;4156;50.908;6.974;2023-07-16T03:52:56;21.40;99.90
8231;DHT22;4156;50.908;6.974;2023-07-16T03:55:22;21.40;99.90
8231;DHT22;4156;50.908;6.974;2023-07-16T03:57:47;21.40;99.90
8231;DHT22;4156;50.908;6.974;2023-07-16T04:00:13;21.50;99.90
8231;DHT22;4156;50.908;6.974;2023-07-16T04:02:38;21.50;99.90
8231;DHT22;4156;50.908;6.974;2023-07-16T04:05:04;21.50;99.90
8231;DHT22;4156;50.908;6.974;2023-07-16T04:07:30;21.40;99.90
8231;DHT22;4156;50.908;6.974;2023-07-16T04:09:55;21.50;99.90
8231;DHT22;4156;50.908;6.974;2023-07-16T04:12:21;21.50;99.90
8231;DHT22;4156;50.908;6.974;2023-07-16T04:14:47;21.50;99.90
8231;DHT22;4156;50.908;6.974;2023-07-16T04:17:12;21.40;99.90
8231;DHT22;4156;50.908;6.974;2023-07-16T04:19:38;21.50;99.90
8231;DHT22;4156;50.908;6.974;2023-07-16T04:22:04;21.50;99.90
8231;DHT22;4156;50.908;6.974;2023-07-16T04:24:29;21.50;99.90
8231;DHT22;4156;50.908;6.974;2023-07-16T04:26:55;21.50;99.90
8231;DHT22;4156;50.908;6.974;2023-07-16T04:29:21;21.50;99.90
8231;DHT22;4156;50.908;6.974;2023-07-16T04:31:47;21.60;99.90
8231;DHT22;4156;50.908;6.974;2023-07-16T04:34:12;21.60;99.90
8231;DHT22;4156;50.908;6.974;2023-07-16T04:36:38;21.60;99.90
8231;DHT22;4156;50.908;6.974;2023-07-16T04:39:04;21.60;99.90
8231;DHT22;4156;50.908;6.974;2023-07-16T04:41:30;21.50;99.90
8231;DHT22;4156;50.908;6.974;2023-07-16T04:43:56;21.60;99.90
8231;DHT22;4156;50.908;6.974;2023-07-16T04:46:22;21.60;99.90
8231;DHT22;4156;50.908;6.974;2023-07-16T04:48:47;21.60;99.90
8231;DHT22;4156;50.908;6.974;2023-07-16T04:51:13;21.60;99.90
8231;DHT22;4156;50.908;6.974;2023-07-16T04:53:38;21.70;99.90
8231;DHT22;4156;50.908;6.974;2023-07-16T04:56:04;21.70;99.90
8231;DHT22;4156;50.908;6.974;2023-07-16T04:58:35;21.70;99.90
8231;DHT22;4156;50.908;6.974;2023-07-16T05:01:00;21.80;99.90
8231;DHT22;4156;50.908;6.974;2023-07-16T05:03:26;21.80;99.90
8231;DHT22;4156;50.908;6.974;2023-07-16T05:05:52;21.80;99.90
8231;DHT22;4156;50.908;6.974;2023-07-16T05:08:17;21.80;99.90
8231;DHT22;4156;50.908;6.974;2023-07-16T05:10:43;21.90;99.90
8231;DHT22;4156;50.908;6.974;2023-07-16T05:13:08;21.90;99.90
8231;DHT22;4156;50.908;6.974;2023-07-16T05:15:34;21.90;99.90
8231;DHT22;4156;50.908;6.974;2023-07-16T05:17:59;21.90;99.90
8231;DHT22;4156;50.908;6.974;2023-07-16T05:20:25;21.90;99.90
8231;DHT22;4156;50.908;6.974;2023-07-16T05:22:50;22.00;99.90
8231;DHT22;4156;50.908;6.974;2023-07-16T05:25:16;22.00;99.90
8231;DHT22;4156;50.908;6.974;2023-07-16T05:27:42;22.10;99.90
8231;DHT22;4156;50.908;6.974;2023-07-16T05:30:07;22.10;99.90
8231;DHT22;4156;50.908;6.974;2023-07-16T05:32:33;22.10;99.90
8231;DHT22;4156;50.908;6.974;2023-07-16T05:34:58;22.20;99.90
8231;DHT22;4156;50.908;6.974;2023-07-16T05:37:24;22.20;99.90
8231;DHT22;4156;50.908;6.974;2023-07-16T05:39:50;22.20;99.90
8231;DHT22;4156;50.908;6.974;2023-07-16T05:42:15;22.20;99.90
8231;DHT22;4156;50.908;6.974;2023-07-16T05:44:41;22.30;99.90
8231;DHT22;4156;50.908;6.974;2023-07-16T05:47:07;22.30;99.90
8231;DHT22;4156;50.908;6.974;2023-07-16T05:49:34;22.30;99.90
8231;DHT22;4156;50.908;6.974;2023-07-16T05:51:59;22.30;99.90
8231;DHT22;4156;50.908;6.974;2023-07-16T05:54:25;22.40;99.90
8231;DHT22;4156;50.908;6.974;2023-07-16T05:56:50;22.40;99.90
8231;DHT22;4156;50.908;6.974;2023-07-16T05:59:16;22.40;99.90
8231;DHT22;4156;50.908;6.974;2023-07-16T06:01:41;22.50;99.90
8231;DHT22;4156;50.908;6.974;2023-07-16T06:04:07;22.60;99.90
8231;DHT22;4156;50.908;6.974;2023-07-16T06:06:32;22.60;99.90
8231;DHT22;4156;50.908;6.974;2023-07-16T06:08:58;22.60;99.90
8231;DHT22;4156;50.908;6.974;2023-07-16T06:11:24;22.60;99.90
8231;DHT22;4156;50.908;6.974;2023-07-16T06:13:49;22.70;99.90
8231;DHT22;4156;50.908;6.974;2023-07-16T06:16:15;22.70;99.90
8231;DHT22;4156;50.908;6.974;2023-07-16T06:18:40;22.80;99.90
8231;DHT22;4156;50.908;6.974;2023-07-16T06:21:06;22.80;99.90
8231;DHT22;4156;50.908;6.974;2023-07-16T06:23:31;22.80;99.90
8231;DHT22;4156;50.908;6.974;2023-07-16T06:25:57;22.90;99.90
8231;DHT22;4156;50.908;6.974;2023-07-16T06:28:23;22.90;99.90
8231;DHT22;4156;50.908;6.974;2023-07-16T06:30:50;23.00;99.90
8231;DHT22;4156;50.908;6.974;2023-07-16T06:33:17;23.00;99.90
8231;DHT22;4156;50.908;6.974;2023-07-16T06:35:44;23.00;99.90
8231;DHT22;4156;50.908;6.974;2023-07-16T06:38:11;23.10;99.90
8231;DHT22;4156;50.908;6.974;2023-07-16T06:40:36;23.10;99.90
8231;DHT22;4156;50.908;6.974;2023-07-16T06:43:02;23.10;99.90
8231;DHT22;4156;50.908;6.974;2023-07-16T06:45:27;23.10;99.90
8231;DHT22;4156;50.908;6.974;2023-07-16T06:47:53;23.20;99.90
8231;DHT22;4156;50.908;6.974;2023-07-16T06:50:18;23.20;99.90
8231;DHT22;4156;50.908;6.974;2023-07-16T06:52:44;23.30;99.90
8231;DHT22;4156;50.908;6.974;2023-07-16T06:55:09;23.30;99.90
8231;DHT22;4156;50.908;6.974;2023-07-16T06:57:35;23.40;99.90
8231;DHT22;4156;50.908;6.974;2023-07-16T07:00:01;23.30;99.90
8231;DHT22;4156;50.908;6.974;2023-07-16T07:02:26;23.30;99.90
8231;DHT22;4156;50.908;6.974;2023-07-16T07:04:52;23.30;99.90
8231;DHT22;4156;50.908;6.974;2023-07-16T07:07:17;23.40;99.90
8231;DHT22;4156;50.908;6.974;2023-07-16T07:09:43;23.40;99.90
8231;DHT22;4156;50.908;6.974;2023-07-16T07:12:12;23.50;99.90
8231;DHT22;4156;50.908;6.974;2023-07-16T07:14:37;23.40;99.90
8231;DHT22;4156;50.908;6.974;2023-07-16T07:17:03;23.50;99.90
8231;DHT22;4156;50.908;6.974;2023-07-16T07:19:29;23.50;99.90
8231;DHT22;4156;50.908;6.974;2023-07-16T07:21:54;23.50;99.90
8231;DHT22;4156;50.908;6.974;2023-07-16T07:24:20;23.60;99.90
8231;DHT22;4156;50.908;6.974;2023-07-16T07:26:45;23.60;99.90
8231;DHT22;4156;50.908;6.974;2023-07-16T07:29:11;23.70;99.90
8231;DHT22;4156;50.908;6.974;2023-07-16T07:31:36;23.70;99.90
8231;DHT22;4156;50.908;6.974;2023-07-16T07:34:02;23.70;99.90
8231;DHT22;4156;50.908;6.974;2023-07-16T07:36:28;23.80;99.90
8231;DHT22;4156;50.908;6.974;2023-07-16T07:38:54;23.80;99.90
8231;DHT22;4156;50.908;6.974;2023-07-16T07:41:19;23.80;99.90
8231;DHT22;4156;50.908;6.974;2023-07-16T07:43:45;23.70;99.90
8231;DHT22;4156;50.908;6.974;2023-07-16T07:46:10;23.70;99.90
8231;DHT22;4156;50.908;6.974;2023-07-16T07:48:37;23.70;99.90
8231;DHT22;4156;50.908;6.974;2023-07-16T07:51:02;23.80;99.90
8231;DHT22;4156;50.908;6.974;2023-07-16T07:53:28;23.80;99.90
8231;DHT22;4156;50.908;6.974;2023-07-16T07:55:54;23.80;99.90
8231;DHT22;4156;50.908;6.974;2023-07-16T07:58:19;23.90;99.90
8231;DHT22;4156;50.908;6.974;2023-07-16T08:00:45;23.90;99.90
8231;DHT22;4156;50.908;6.974;2023-07-16T08:03:11;23.90;99.90
8231;DHT22;4156;50.908;6.974;2023-07-16T08:05:36;23.90;99.90
8231;DHT22;4156;50.908;6.974;2023-07-16T08:08:02;23.90;99.90
8231;DHT22;4156;50.908;6.974;2023-07-16T08:10:27;24.00;99.90
8231;DHT22;4156;50.908;6.974;2023-07-16T08:12:53;24.00;99.90
8231;DHT22;4156;50.908;6.974;2023-07-16T08:15:18;24.00;99.90
8231;DHT22;4156;50.908;6.974;2023-07-16T08:17:45;24.10;99.90
8231;DHT22;4156;50.908;6.974;2023-07-16T08:20:11;24.10;99.90
8231;DHT22;4156;50.908;6.974;2023-07-16T08:22:37;24.10;99.90
8231;DHT22;4156;50.908;6.974;2023-07-16T08:25:03;24.10;99.90
8231;DHT22;4156;50.908;6.974;2023-07-16T08:27:30;24.10;99.90
8231;DHT22;4156;50.908;6.974;2023-07-16T08:29:55;24.10;99.90
8231;DHT22;4156;50.908;6.974;2023-07-16T08:32:21;24.10;99.90
8231;DHT22;4156;50.908;6.974;2023-07-16T08:34:47;24.10;99.90
8231;DHT22;4156;50.908;6.974;2023-07-16T08:37:13;24.10;99.90
8231;DHT22;4156;50.908;6.974;2023-07-16T08:39:39;24.10;99.90
8231;DHT22;4156;50.908;6.974;2023-07-16T08:42:05;24.10;99.90
8231;DHT22;4156;50.908;6.974;2023-07-16T08:44:30;24.10;99.90
8231;DHT22;4156;50.908;6.974;2023-07-16T08:46:56;24.20;99.90
8231;DHT22;4156;50.908;6.974;2023-07-16T08:49:22;24.30;99.90
8231;DHT22;4156;50.908;6.974;2023-07-16T08:51:48;24.30;99.90
8231;DHT22;4156;50.908;6.974;2023-07-16T08:54:15;24.30;99.90
8231;DHT22;4156;50.908;6.974;2023-07-16T08:56:45;24.30;99.90
8231;DHT22;4156;50.908;6.974;2023-07-16T08:59:11;24.40;99.90
8231;DHT22;4156;50.908;6.974;2023-07-16T09:01:37;24.40;99.90
8231;DHT22;4156;50.908;6.974;2023-07-16T09:04:03;24.40;99.90
8231;DHT22;4156;50.908;6.974;2023-07-16T09:06:29;24.40;99.90
8231;DHT22;4156;50.908;6.974;2023-07-16T09:08:55;24.40;99.90
8231;DHT22;4156;50.908;6.974;2023-07-16T09:11:21;24.40;99.90
8231;DHT22;4156;50.908;6.974;2023-07-16T09:13:48;24.50;99.90
8231;DHT22;4156;50.908;6.974;2023-07-16T09:16:13;24.50;99.90
8231;DHT22;4156;50.908;6.974;2023-07-16T09:18:42;24.50;99.90
8231;DHT22;4156;50.908;6.974;2023-07-16T09:21:07;24.50;99.90
8231;DHT22;4156;50.908;6.974;2023-07-16T09:23:34;24.50;99.90
8231;DHT22;4156;50.908;6.974;2023-07-16T09:25:59;24.50;99.90
8231;DHT22;4156;50.908;6.974;2023-07-16T09:28:25;24.50;99.90
8231;DHT22;4156;50.908;6.974;2023-07-16T09:30:51;24.50;99.90
8231;DHT22;4156;50.908;6.974;2023-07-16T09:33:18;24.50;99.90
8231;DHT22;4156;50.908;6.974;2023-07-16T09:35:49;24.60;99.90
8231;DHT22;4156;50.908;6.974;2023-07-16T09:38:16;24.60;99.90
8231;DHT22;4156;50.908;6.974;2023-07-16T09:40:42;24.60;99.90
8231;DHT22;4156;50.908;6.974;2023-07-16T09:43:09;24.60;99.90
8231;DHT22;4156;50.908;6.974;2023-07-16T09:45:35;24.70;99.90
8231;DHT22;4156;50.908;6.974;2023-07-16T09:48:02;24.60;99.90
8231;DHT22;4156;50.908;6.974;2023-07-16T09:50:29;24.70;99.90
8231;DHT22;4156;50.908;6.974;2023-07-16T09:52:57;24.70;99.90
8231;DHT22;4156;50.908;6.974;2023-07-16T09:55:24;24.60;99.90
8231;DHT22;4156;50.908;6.974;2023-07-16T09:57:52;24.60;99.90
8231;DHT22;4156;50.908;6.974;2023-07-16T10:00:19;24.60;99.90
8231;DHT22;4156;50.908;6.974;2023-07-16T10:02:46;24.70;99.90
8231;DHT22;4156;50.908;6.974;2023-07-16T10:07:42;24.70;99.90
8231;DHT22;4156;50.908;6.974;2023-07-16T10:10:09;24.70;99.90
8231;DHT22;4156;50.908;6.974;2023-07-16T10:12:36;24.70;99.90
8231;DHT22;4156;50.908;6.974;2023-07-16T10:15:02;24.70;99.90
8231;DHT22;4156;50.908;6.974;2023-07-16T10:17:30;24.80;99.90
8231;DHT22;4156;50.908;6.974;2023-07-16T10:25:00;24.80;99.90
8231;DHT22;4156;50.908;6.974;2023-07-16T10:27:32;24.80;99.90
8231;DHT22;4156;50.908;6.974;2023-07-16T10:30:02;24.80;99.90
8231;DHT22;4156;50.908;6.974;2023-07-16T10:32:30;24.80;99.90
8231;DHT22;4156;50.908;6.974;2023-07-16T10:34:56;24.80;99.90
8231;DHT22;4156;50.908;6.974;2023-07-16T10:37:22;24.80;99.90
8231;DHT22;4156;50.908;6.974;2023-07-16T10:39:53;24.80;99.90
8231;DHT22;4156;50.908;6.974;2023-07-16T10:42:20;24.80;99.90
8231;DHT22;4156;50.908;6.974;2023-07-16T10:45:03;24.80;99.90
8231;DHT22;4156;50.908;6.974;2023-07-16T10:47:34;24.80;99.90
8231;DHT22;4156;50.908;6.974;2023-07-16T10:50:00;24.90;99.90
8231;DHT22;4156;50.908;6.974;2023-07-16T10:52:26;24.90;99.90
8231;DHT22;4156;50.908;6.974;2023-07-16T10:54:52;25.00;99.90
8231;DHT22;4156;50.908;6.974;2023-07-16T10:57:23;25.00;99.90
8231;DHT22;4156;50.908;6.974;2023-07-16T10:59:50;24.90;99.90
8231;DHT22;4156;50.908;6.974;2023-07-16T11:02:17;24.90;99.90
8231;DHT22;4156;50.908;6.974;2023-07-16T11:04:43;25.00;99.90
8231;DHT22;4156;50.908;6.974;2023-07-16T11:07:11;25.00;99.90
8231;DHT22;4156;50.908;6.974;2023-07-16T11:09:55;25.00;99.90
8231;DHT22;4156;50.908;6.974;2023-07-16T11:12:22;25.00;99.90
8231;DHT22;4156;50.908;6.974;2023-07-16T11:14:52;25.00;99.90
8231;DHT22;4156;50.908;6.974;2023-07-16T11:17:19;25.00;99.90
8231;DHT22;4156;50.908;6.974;2023-07-16T11:19:47;25.00;99.90
8231;DHT22;4156;50.908;6.974;2023-07-16T11:22:13;25.00;99.90
8231;DHT22;4156;50.908;6.974;2023-07-16T11:24:44;25.10;99.90
8231;DHT22;4156;50.908;6.974;2023-07-16T11:27:15;25.00;99.90
8231;DHT22;4156;50.908;6.974;2023-07-16T11:29:49;25.00;99.90
8231;DHT22;4156;50.908;6.974;2023-07-16T11:32:37;25.00;99.90
8231;DHT22;4156;50.908;6.974;2023-07-16T11:35:04;25.00;99.90
8231;DHT22;4156;50.908;6.974;2023-07-16T11:37:31;25.00;99.90
8231;DHT22;4156;50.908;6.974;2023-07-16T11:40:07;25.00;99.90
8231;DHT22;4156;50.908;6.974;2023-07-16T11:44:59;25.10;99.90
8231;DHT22;4156;50.908;6.974;2023-07-16T11:47:25;25.00;99.90
8231;DHT22;4156;50.908;6.974;2023-07-16T11:49:51;25.00;99.90
8231;DHT22;4156;50.908;6.974;2023-07-16T11:52:27;24.90;99.90
8231;DHT22;4156;50.908;6.974;2023-07-16T11:54:54;25.00;99.90
8231;DHT22;4156;50.908;6.974;2023-07-16T11:57:20;25.00;99.90
8231;DHT22;4156;50.908;6.974;2023-07-16T11:59:45;25.00;99.90
8231;DHT22;4156;50.908;6.974;2023-07-16T12:02:11;25.00;99.90
8231;DHT22;4156;50.908;6.974;2023-07-16T12:04:37;25.10;99.90
8231;DHT22;4156;50.908;6.974;2023-07-16T12:07:03;25.10;99.90
8231;DHT22;4156;50.908;6.974;2023-07-16T12:09:29;25.00;99.90
8231;DHT22;4156;50.908;6.974;2023-07-16T12:11:54;25.10;99.90
8231;DHT22;4156;50.908;6.974;2023-07-16T12:14:20;25.10;99.90
8231;DHT22;4156;50.908;6.974;2023-07-16T12:16:45;25.10;99.90
8231;DHT22;4156;50.908;6.974;2023-07-16T12:19:11;25.10;99.90
8231;DHT22;4156;50.908;6.974;2023-07-16T12:21:36;25.10;99.90
8231;DHT22;4156;50.908;6.974;2023-07-16T12:24:02;25.10;99.90
8231;DHT22;4156;50.908;6.974;2023-07-16T12:26:28;25.10;99.90
8231;DHT22;4156;50.908;6.974;2023-07-16T12:28:53;25.10;99.90
8231;DHT22;4156;50.908;6.974;2023-07-16T12:31:19;25.10;99.90
8231;DHT22;4156;50.908;6.974;2023-07-16T12:33:46;25.10;99.90
8231;DHT22;4156;50.908;6.974;2023-07-16T12:36:12;25.10;99.90
8231;DHT22;4156;50.908;6.974;2023-07-16T12:38:38;25.10;99.90
8231;DHT22;4156;50.908;6.974;2023-07-16T12:41:03;25.10;99.90
8231;DHT22;4156;50.908;6.974;2023-07-16T12:43:29;25.10;99.90
8231;DHT22;4156;50.908;6.974;2023-07-16T12:45:54;25.10;99.90
8231;DHT22;4156;50.908;6.974;2023-07-16T12:48:20;25.00;99.90
8231;DHT22;4156;50.908;6.974;2023-07-16T12:50:45;25.10;99.90
8231;DHT22;4156;50.908;6.974;2023-07-16T12:53:11;25.10;99.90
8231;DHT22;4156;50.908;6.974;2023-07-16T12:55:38;25.10;99.90
8231;DHT22;4156;50.908;6.974;2023-07-16T12:58:03;25.20;99.90
8231;DHT22;4156;50.908;6.974;2023-07-16T13:00:29;25.20;99.90
8231;DHT22;4156;50.908;6.974;2023-07-16T13:02:54;25.10;99.90
8231;DHT22;4156;50.908;6.974;2023-07-16T13:05:20;25.10;99.90
8231;DHT22;4156;50.908;6.974;2023-07-16T13:07:45;25.10;99.90
8231;DHT22;4156;50.908;6.974;2023-07-16T13:10:11;25.10;99.90
8231;DHT22;4156;50.908;6.974;2023-07-16T13:12:36;25.10;99.90
8231;DHT22;4156;50.908;6.974;2023-07-16T13:15:02;25.10;99.90
8231;DHT22;4156;50.908;6.974;2023-07-16T13:17:28;25.20;99.90
8231;DHT22;4156;50.908;6.974;2023-07-16T13:19:53;25.20;99.90
8231;DHT22;4156;50.908;6.974;2023-07-16T13:22:19;25.20;99.90
8231;DHT22;4156;50.908;6.974;2023-07-16T13:24:44;25.30;99.90
8231;DHT22;4156;50.908;6.974;2023-07-16T13:27:19;25.30;99.90
8231;DHT22;4156;50.908;6.974;2023-07-16T13:29:45;25.30;99.90
8231;DHT22;4156;50.908;6.974;2023-07-16T13:32:11;25.30;99.90
8231;DHT22;4156;50.908;6.974;2023-07-16T13:34:36;25.30;99.90
8231;DHT22;4156;50.908;6.974;2023-07-16T13:37:02;25.30;99.90
8231;DHT22;4156;50.908;6.974;2023-07-16T13:39:28;25.30;99.90
8231;DHT22;4156;50.908;6.974;2023-07-16T13:41:54;25.30;99.90
8231;DHT22;4156;50.908;6.974;2023-07-16T13:44:19;25.30;99.90
8231;DHT22;4156;50.908;6.974;2023-07-16T13:46:45;25.30;99.90
8231;DHT22;4156;50.908;6.974;2023-07-16T13:49:10;25.30;99.90
8231;DHT22;4156;50.908;6.974;2023-07-16T13:51:36;25.30;99.90
8231;DHT22;4156;50.908;6.974;2023-07-16T13:54:01;25.30;99.90
8231;DHT22;4156;50.908;6.974;2023-07-16T13:56:27;25.30;99.90
8231;DHT22;4156;50.908;6.974;2023-07-16T13:58:52;25.40;99.90
8231;DHT22;4156;50.908;6.974;2023-07-16T14:01:19;25.40;99.90
8231;DHT22;4156;50.908;6.974;2023-07-16T14:03:45;25.30;99.90
8231;DHT22;4156;50.908;6.974;2023-07-16T14:06:10;25.30;99.90
8231;DHT22;4156;50.908;6.974;2023-07-16T14:08:36;25.30;99.90
8231;DHT22;4156;50.908;6.974;2023-07-16T14:11:02;25.30;99.90
8231;DHT22;4156;50.908;6.974;2023-07-16T14:13:28;25.20;99.90
8231;DHT22;4156;50.908;6.974;2023-07-16T14:15:53;25.40;99.90
8231;DHT22;4156;50.908;6.974;2023-07-16T14:18:19;25.40;99.90
8231;DHT22;4156;50.908;6.974;2023-07-16T14:20:45;25.40;99.90
8231;DHT22;4156;50.908;6.974;2023-07-16T14:23:10;25.40;99.90
8231;DHT22;4156;50.908;6.974;2023-07-16T14:25:36;25.40;99.90
8231;DHT22;4156;50.908;6.974;2023-07-16T14:28:01;25.30;99.90
8231;DHT22;4156;50.908;6.974;2023-07-16T14:30:27;25.40;99.90
8231;DHT22;4156;50.908;6.974;2023-07-16T14:32:52;25.40;99.90
8231;DHT22;4156;50.908;6.974;2023-07-16T14:35:18;25.40;99.90
8231;DHT22;4156;50.908;6.974;2023-07-16T14:37:43;25.40;99.90
8231;DHT22;4156;50.908;6.974;2023-07-16T14:40:09;25.50;99.90
8231;DHT22;4156;50.908;6.974;2023-07-16T14:42:35;25.40;99.90
8231;DHT22;4156;50.908;6.974;2023-07-16T14:45:00;25.40;99.90
8231;DHT22;4156;50.908;6.974;2023-07-16T14:47:27;25.40;99.90
8231;DHT22;4156;50.908;6.974;2023-07-16T14:49:52;25.40;99.90
8231;DHT22;4156;50.908;6.974;2023-07-16T14:52:19;25.50;99.90
8231;DHT22;4156;50.908;6.974;2023-07-16T14:54:44;25.40;99.90
8231;DHT22;4156;50.908;6.974;2023-07-16T14:57:10;25.50;99.90
8231;DHT22;4156;50.908;6.974;2023-07-16T14:59:36;25.50;99.90
8231;DHT22;4156;50.908;6.974;2023-07-16T15:02:03;25.50;99.90
8231;DHT22;4156;50.908;6.974;2023-07-16T15:04:28;25.40;99.90
8231;DHT22;4156;50.908;6.974;2023-07-16T15:06:54;25.50;99.90
8231;DHT22;4156;50.908;6.974;2023-07-16T15:09:21;25.50;99.90
8231;DHT22;4156;50.908;6.974;2023-07-16T15:11:47;25.50;99.90
8231;DHT22;4156;50.908;6.974;2023-07-16T15:14:12;25.50;99.90
8231;DHT22;4156;50.908;6.974;2023-07-16T15:16:38;25.50;99.90
8231;DHT22;4156;50.908;6.974;2023-07-16T15:19:03;25.50;99.90
8231;DHT22;4156;50.908;6.974;2023-07-16T15:21:29;25.50;99.90
8231;DHT22;4156;50.908;6.974;2023-07-16T15:23:55;25.50;99.90
8231;DHT22;4156;50.908;6.974;2023-07-16T15:26:20;25.40;99.90
8231;DHT22;4156;50.908;6.974;2023-07-16T15:28:46;25.40;99.90
8231;DHT22;4156;50.908;6.974;2023-07-16T15:31:11;25.40;99.90
8231;DHT22;4156;50.908;6.974;2023-07-16T15:33:38;25.40;99.90
8231;DHT22;4156;50.908;6.974;2023-07-16T15:36:04;25.50;99.90
8231;DHT22;4156;50.908;6.974;2023-07-16T15:38:29;25.50;99.90
8231;DHT22;4156;50.908;6.974;2023-07-16T15:40:55;25.50;99.90
8231;DHT22;4156;50.908;6.974;2023-07-16T15:43:22;25.50;99.90
8231;DHT22;4156;50.908;6.974;2023-07-16T15:45:48;25.50;99.90
8231;DHT22;4156;50.908;6.974;2023-07-16T15:48:13;25.50;99.90
8231;DHT22;4156;50.908;6.974;2023-07-16T15:50:39;25.50;99.90
8231;DHT22;4156;50.908;6.974;2023-07-16T15:53:06;25.50;99.90
8231;DHT22;4156;50.908;6.974;2023-07-16T15:55:31;25.50;99.90
8231;DHT22;4156;50.908;6.974;2023-07-16T15:57:57;25.50;99.90
8231;DHT22;4156;50.908;6.974;2023-07-16T16:00:23;25.50;99.90
8231;DHT22;4156;50.908;6.974;2023-07-16T16:02:50;25.60;99.90
8231;DHT22;4156;50.908;6.974;2023-07-16T16:05:20;25.60;99.90
8231;DHT22;4156;50.908;6.974;2023-07-16T16:08:10;25.60;99.90
8231;DHT22;4156;50.908;6.974;2023-07-16T16:10:32;25.60;99.90
8231;DHT22;4156;50.908;6.974;2023-07-16T16:12:58;25.60;99.90